Meteorología y climatología de Navarra
Datos de la estación - Meteo Navarra

Estación de Aralar GN

Altitud 1344 m.


Datos desde el 15/02/2020 hasta el 16/02/2020 en horario solar
Los datos son PROVISIONALES

Anterior Página 1 de 1 Siguiente Descargar: Formato para Excel 2000 o superior   Formato csv   Formato para OpenOffice Calc
Fecha Temperatura Humedad relativa Radiación global Insolación Precipitación Vel. viento 10 m Vel. viento 10 m Dir. viento 10 m
ºC % W/m² s l/m² m/s km/h º
15/02/2020 0:00 6.7 84 0.0 0 0.0 5.3 19.2 210
15/02/2020 0:10 6.7 83 0.0 0 0.0 7.1 25.5 210
15/02/2020 0:20 6.6 84 0.0 0 0.0 5.1 18.5 211
15/02/2020 0:30 6.5 83 0.0 0 0.0 6.5 23.5 210
15/02/2020 0:40 6.6 81 0.0 0 0.0 5.4 19.4 206
15/02/2020 0:50 6.5 79 0.0 0 0.0 5.9 21.3 187
15/02/2020 1:00 6.6 78 0.0 0 0.0 6.4 23.1 189
15/02/2020 1:10 6.7 78 0.0 0 0.0 6.0 21.7 197
15/02/2020 1:20 6.7 79 0.0 0 0.0 6.6 23.8 196
15/02/2020 1:30 6.6 80 0.0 0 0.0 6.7 24.0 192
15/02/2020 1:40 6.7 81 0.0 0 0.0 7.1 25.4 195
15/02/2020 1:50 6.7 81 0.0 0 0.0 7.8 27.9 194
15/02/2020 2:00 6.6 82 0.0 0 0.0 7.7 27.8 196
15/02/2020 2:10 6.5 83 0.0 0 0.0 7.1 25.4 200
15/02/2020 2:20 6.6 82 0.0 0 0.0 7.4 26.6 199
15/02/2020 2:30 6.6 82 0.0 0 0.0 6.8 24.4 201
15/02/2020 2:40 6.9 80 0.0 0 0.0 5.0 17.9 211
15/02/2020 2:50 7.1 78 0.0 0 0.0 4.3 15.4 212
15/02/2020 3:00 6.8 80 0.0 0 0.0 4.8 17.4 211
15/02/2020 3:10 6.3 84 0.0 0 0.0 7.0 25.2 210
15/02/2020 3:20 6.4 83 0.0 0 0.0 5.1 18.2 212
15/02/2020 3:30 6.0 85 0.0 0 0.0 7.1 25.4 211
15/02/2020 3:40 5.9 86 0.0 0 0.0 6.6 23.9 211
15/02/2020 3:50 6.2 83 0.0 0 0.0 8.9 32.1 209
15/02/2020 4:00 6.1 83 0.0 0 0.0 9.3 33.4 208
15/02/2020 4:10 6.0 84 0.0 0 0.0 9.2 33.3 209
15/02/2020 4:20 5.9 86 0.0 0 0.0 7.7 27.5 210
15/02/2020 4:30 5.0 94 0.0 0 0.0 6.0 21.4 210
15/02/2020 4:40 4.9 96 0.0 0 0.0 9.8 35.1 209
15/02/2020 4:50 4.7 97 0.0 0 0.0 10.8 39.0 208
15/02/2020 5:00 5.1 95 0.0 0 0.0 10.5 37.9 205
15/02/2020 5:10 5.4 91 0.0 0 0.0 8.1 29.0 209
15/02/2020 5:20 5.5 89 0.0 0 0.0 6.3 22.8 211
15/02/2020 5:30 5.2 91 0.0 0 0.0 7.4 26.6 206
15/02/2020 5:40 4.9 94 0.0 0 0.0 6.0 21.5 210
15/02/2020 5:50 4.6 97 0.0 0 0.0 4.0 14.3 211
15/02/2020 6:00 4.5 98 0.0 0 0.0 7.0 25.0 209
15/02/2020 6:10 4.7 96 0.0 0 0.0 7.6 27.3 210
15/02/2020 6:20 4.8 94 0.0 0 0.0 8.2 29.6 209
15/02/2020 6:30 4.6 97 0.0 0 0.0 5.7 20.5 210
15/02/2020 6:40 4.4 98 0.0 0 0.0 4.5 16.3 211
15/02/2020 6:50 4.5 98 0.0 0 0.0 2.4 8.8 213
15/02/2020 7:00 4.3 100 0.0 0 0.0 6.6 23.8 210
15/02/2020 7:10 4.1 100 0.0 0 0.0 9.1 32.6 209
15/02/2020 7:20 4.2 100 23.4 156 0.0 9.0 32.4 196
15/02/2020 7:30 4.7 96 48.6 600 0.0 8.8 31.6 196
15/02/2020 7:40 5.2 91 67.8 600 0.0 8.5 30.7 194
15/02/2020 7:50 5.4 89 90.6 600 0.0 7.5 27.0 192
15/02/2020 8:00 5.4 90 119.9 600 0.0 7.2 25.9 188
15/02/2020 8:10 5.9 84 150.6 600 0.0 8.6 30.8 201
15/02/2020 8:20 6.8 72 180.9 600 0.0 9.6 34.5 208
15/02/2020 8:30 7.2 65 212.2 600 0.0 8.4 30.3 210
15/02/2020 8:40 7.2 63 243.8 600 0.0 7.4 26.7 210
15/02/2020 8:50 6.9 69 273.6 600 0.0 4.4 15.7 212
15/02/2020 9:00 6.6 73 301.0 600 0.0 3.6 12.8 214
15/02/2020 9:10 6.5 74 328.4 600 0.0 4.9 17.5 211
15/02/2020 9:20 6.2 82 354.9 600 0.0 5.8 21.0 209
15/02/2020 9:30 6.7 81 380.5 600 0.0 5.9 21.1 206
15/02/2020 9:40 7.4 76 406.6 600 0.0 5.7 20.4 204
15/02/2020 9:50 7.8 69 430.9 600 0.0 4.8 17.1 209
15/02/2020 10:00 8.4 73 452.7 600 0.0 4.5 16.2 202
15/02/2020 10:10 8.3 78 473.3 600 0.0 3.7 13.1 178
15/02/2020 10:20 7.8 82 482.1 600 0.0 3.2 11.3 167
15/02/2020 10:30 7.8 83 519.1 600 0.0 5.1 18.3 181
15/02/2020 10:40 8.1 81 532.1 600 0.0 6.0 21.5 199
15/02/2020 10:50 8.4 79 549.5 600 0.0 5.8 21.0 195
15/02/2020 11:00 7.8 82 567.7 600 0.0 5.8 21.0 205
15/02/2020 11:10 8.5 78 605.2 600 0.0 4.8 17.3 200
15/02/2020 11:20 8.6 80 613.3 600 0.0 4.1 14.7 174
15/02/2020 11:30 7.9 83 620.0 600 0.0 3.7 13.4 166
15/02/2020 11:40 7.9 85 630.2 600 0.0 3.2 11.5 168
15/02/2020 11:50 8.6 82 639.6 600 0.0 4.3 15.5 178
15/02/2020 12:00 8.9 79 645.6 600 0.0 5.1 18.2 173
15/02/2020 12:10 8.7 80 651.9 600 0.0 5.2 18.8 170
15/02/2020 12:20 8.6 81 620.4 600 0.0 6.0 21.4 172
15/02/2020 12:30 8.8 80 679.2 600 0.0 7.0 25.0 175
15/02/2020 12:40 8.9 80 502.3 600 0.0 7.1 25.4 168
15/02/2020 12:50 8.4 83 652.4 600 0.0 7.0 25.1 166
15/02/2020 13:00 8.8 79 492.5 600 0.0 8.1 29.3 172
15/02/2020 13:10 9.2 75 504.3 600 0.0 7.6 27.3 188
15/02/2020 13:20 9.4 67 531.4 600 0.0 7.9 28.3 196
15/02/2020 13:30 10.0 65 494.3 600 0.0 8.4 30.2 198
15/02/2020 13:40 9.7 65 411.2 600 0.0 7.4 26.7 201
15/02/2020 13:50 9.5 65 405.2 600 0.0 6.4 23.1 205
15/02/2020 14:00 9.6 66 401.4 600 0.0 6.4 22.9 206
15/02/2020 14:10 9.0 65 359.7 600 0.0 5.2 18.6 212
15/02/2020 14:20 9.0 65 309.7 600 0.0 6.5 23.4 209
15/02/2020 14:30 9.0 65 392.1 600 0.0 5.6 20.1 211
15/02/2020 14:40 9.1 65 312.6 600 0.0 4.9 17.6 213
15/02/2020 14:50 8.6 67 278.0 600 0.0 3.2 11.3 218
15/02/2020 15:00 8.5 67 210.4 54 0.0 7.8 28.2 210
15/02/2020 15:10 8.6 69 185.1 0 0.0 9.4 33.9 207
15/02/2020 15:20 8.6 68 163.2 0 0.0 10.1 36.4 209
15/02/2020 15:30 8.7 66 145.9 0 0.0 9.5 34.1 209
15/02/2020 15:40 8.6 66 135.1 0 0.0 8.1 29.3 211
15/02/2020 15:50 8.6 66 118.4 0 0.0 9.5 34.1 210
15/02/2020 16:00 8.5 67 89.1 0 0.0 10.7 38.5 208
15/02/2020 16:10 8.6 68 75.8 0 0.0 7.5 27.1 211
15/02/2020 16:20 8.3 68 62.3 0 0.0 2.5 8.9 217
15/02/2020 16:30 8.3 68 50.8 0 0.0 7.6 27.2 211
15/02/2020 16:40 8.5 68 47.1 0 0.0 3.6 12.9 212
15/02/2020 16:50 8.4 67 61.4 0 0.0 7.7 27.8 210
15/02/2020 17:00 8.5 67 59.9 448 0.0 9.5 34.0 210
15/02/2020 17:10 8.4 68 39.8 70 0.0 10.0 36.1 210
15/02/2020 17:20 8.0 71 16.7 0 0.0 10.9 39.3 210
15/02/2020 17:30 8.0 73 2.5 0 0.0 12.6 45.2 210
15/02/2020 17:40 8.1 72 0.0 0 0.0 11.3 40.6 209
15/02/2020 17:50 7.7 73 0.0 0 0.0 11.4 41.0 207
15/02/2020 18:00 7.5 75 0.0 0 0.0 10.5 37.9 210
15/02/2020 18:10 7.6 75 0.0 0 0.0 3.5 12.6 216
15/02/2020 18:20 7.6 77 0.0 0 0.0 2.6 9.5 222
15/02/2020 18:30 7.4 78 0.0 0 0.0 4.6 16.5 211
15/02/2020 18:40 7.4 79 0.0 0 0.0 5.0 17.8 212
15/02/2020 18:50 7.4 79 0.0 0 0.0 2.8 9.9 215
15/02/2020 19:00 7.4 79 0.0 0 0.0 2.5 8.9 216
15/02/2020 19:10 7.7 76 0.0 0 0.0 2.3 8.3 216
15/02/2020 19:20 8.0 73 0.0 0 0.0 2.0 7.2 218
15/02/2020 19:30 7.9 72 0.0 0 0.0 2.0 7.1 221
15/02/2020 19:40 7.9 72 0.0 0 0.0 2.3 8.2 221
15/02/2020 19:50 7.9 72 0.0 0 0.0 2.2 8.1 219
15/02/2020 20:00 7.9 71 0.0 0 0.0 4.3 15.5 211
15/02/2020 20:10 7.5 74 0.0 0 0.0 7.5 26.9 210
15/02/2020 20:20 7.3 76 0.0 0 0.0 8.9 32.2 207
15/02/2020 20:30 7.6 71 0.0 0 0.0 9.4 33.8 205
15/02/2020 20:40 8.3 64 0.0 0 0.0 9.5 34.2 208
15/02/2020 20:50 8.5 59 0.0 0 0.0 10.0 36.1 206
15/02/2020 21:00 8.6 58 0.0 0 0.0 10.9 39.1 205
15/02/2020 21:10 8.3 61 0.0 0 0.0 11.1 39.8 203
15/02/2020 21:20 8.4 60 0.0 0 0.0 11.3 40.8 206
15/02/2020 21:30 8.5 58 0.0 0 0.0 12.5 45.1 203
15/02/2020 21:40 8.7 57 0.0 0 0.0 10.9 39.1 207
15/02/2020 21:50 8.6 58 0.0 0 0.0 10.3 37.1 205
15/02/2020 22:00 8.1 64 0.0 0 0.0 9.2 33.1 207
15/02/2020 22:10 7.8 68 0.0 0 0.0 9.3 33.3 205
15/02/2020 22:20 7.1 77 0.0 0 0.0 9.3 33.4 207
15/02/2020 22:30 6.6 83 0.0 0 0.0 10.2 36.6 203
15/02/2020 22:40 6.9 78 0.0 0 0.0 11.5 41.3 204
15/02/2020 22:50 7.5 66 0.0 0 0.0 11.8 42.6 205
15/02/2020 23:00 7.9 61 0.0 0 0.0 11.0 39.4 203
15/02/2020 23:10 7.8 63 0.0 0 0.0 10.9 39.1 191
15/02/2020 23:20 7.5 68 0.0 0 0.0 10.4 37.3 183
15/02/2020 23:30 7.1 74 0.0 0 0.0 10.7 38.3 182
15/02/2020 23:40 7.1 74 0.0 0 0.0 12.0 43.3 194
15/02/2020 23:50 7.5 67 0.0 0 0.0 12.6 45.4 195
Anterior Página 1 de 1 Siguiente
Los datos de precipitación registrados en estaciones que están en cumbres son inferiores a lo real, como consecuencia del efecto del viento y de la nieve.


NOTA: Tipo de datos según el color:
   - Valores diarios o 10 minutos correctos
   - Valores diarios calculados a partir de un número de datos 10 minutos menor que 144 y mayor que 120, o de un número de datos semihorarios menor que 48 y mayor que 40 (caso de las estaciones de INTIA y del Ministerio)
   - Valores diez minutos estimados


Contacto        Enlaces        Aviso legal